sensor_id;sensor_type;location;lat;lon;timestamp;P1;durP1;ratioP1;P2;durP2;ratioP2
66169;SDS011;52971;44.024;20.456;2022-08-19T00:01:52;4.13;;;3.55;;
66169;SDS011;52971;44.024;20.456;2022-08-19T00:04:20;6.43;;;3.80;;
66169;SDS011;52971;44.024;20.456;2022-08-19T00:06:48;7.43;;;3.75;;
66169;SDS011;52971;44.024;20.456;2022-08-19T00:09:14;4.80;;;3.63;;
66169;SDS011;52971;44.024;20.456;2022-08-19T00:11:42;6.35;;;4.63;;
66169;SDS011;52971;44.024;20.456;2022-08-19T00:14:09;8.38;;;3.65;;
66169;SDS011;52971;44.024;20.456;2022-08-19T00:16:37;7.20;;;4.28;;
66169;SDS011;52971;44.024;20.456;2022-08-19T00:19:03;4.07;;;3.70;;
66169;SDS011;52971;44.024;20.456;2022-08-19T00:21:29;7.13;;;3.47;;
66169;SDS011;52971;44.024;20.456;2022-08-19T00:23:55;8.30;;;4.35;;
66169;SDS011;52971;44.024;20.456;2022-08-19T00:26:24;3.92;;;3.55;;
66169;SDS011;52971;44.024;20.456;2022-08-19T00:28:51;4.63;;;3.65;;
66169;SDS011;52971;44.024;20.456;2022-08-19T00:31:16;8.55;;;4.22;;
66169;SDS011;52971;44.024;20.456;2022-08-19T00:33:42;4.85;;;4.35;;
66169;SDS011;52971;44.024;20.456;2022-08-19T00:36:08;5.47;;;4.25;;
66169;SDS011;52971;44.024;20.456;2022-08-19T00:38:35;6.43;;;4.10;;
66169;SDS011;52971;44.024;20.456;2022-08-19T00:41:01;4.95;;;4.47;;
66169;SDS011;52971;44.024;20.456;2022-08-19T00:43:26;6.40;;;4.55;;
66169;SDS011;52971;44.024;20.456;2022-08-19T00:45:53;5.93;;;3.67;;
66169;SDS011;52971;44.024;20.456;2022-08-19T00:48:20;6.22;;;4.63;;
66169;SDS011;52971;44.024;20.456;2022-08-19T00:50:47;4.43;;;3.35;;
66169;SDS011;52971;44.024;20.456;2022-08-19T00:53:14;6.60;;;3.78;;
66169;SDS011;52971;44.024;20.456;2022-08-19T00:55:44;7.95;;;4.25;;
66169;SDS011;52971;44.024;20.456;2022-08-19T00:58:14;5.38;;;4.18;;
66169;SDS011;52971;44.024;20.456;2022-08-19T01:00:42;5.78;;;4.10;;
66169;SDS011;52971;44.024;20.456;2022-08-19T01:03:08;8.20;;;4.68;;
66169;SDS011;52971;44.024;20.456;2022-08-19T01:05:36;5.65;;;4.38;;
66169;SDS011;52971;44.024;20.456;2022-08-19T01:08:04;6.88;;;4.45;;
66169;SDS011;52971;44.024;20.456;2022-08-19T01:10:31;7.30;;;4.43;;
66169;SDS011;52971;44.024;20.456;2022-08-19T01:13:01;5.00;;;4.50;;
66169;SDS011;52971;44.024;20.456;2022-08-19T01:15:32;5.78;;;4.03;;
66169;SDS011;52971;44.024;20.456;2022-08-19T01:18:01;6.47;;;4.53;;
66169;SDS011;52971;44.024;20.456;2022-08-19T01:20:31;7.05;;;4.22;;
66169;SDS011;52971;44.024;20.456;2022-08-19T01:22:57;9.10;;;4.40;;
66169;SDS011;52971;44.024;20.456;2022-08-19T01:25:29;5.60;;;4.32;;
66169;SDS011;52971;44.024;20.456;2022-08-19T01:28:17;5.10;;;4.05;;
66169;SDS011;52971;44.024;20.456;2022-08-19T01:30:45;4.63;;;4.22;;
66169;SDS011;52971;44.024;20.456;2022-08-19T01:33:11;6.78;;;4.53;;
66169;SDS011;52971;44.024;20.456;2022-08-19T01:35:37;6.18;;;4.25;;
66169;SDS011;52971;44.024;20.456;2022-08-19T01:38:04;5.45;;;3.80;;
66169;SDS011;52971;44.024;20.456;2022-08-19T01:40:33;7.68;;;4.60;;
66169;SDS011;52971;44.024;20.456;2022-08-19T01:43:02;5.72;;;4.50;;
66169;SDS011;52971;44.024;20.456;2022-08-19T01:45:29;6.63;;;4.78;;
66169;SDS011;52971;44.024;20.456;2022-08-19T01:47:56;4.68;;;4.28;;
66169;SDS011;52971;44.024;20.456;2022-08-19T01:50:23;5.88;;;4.30;;
66169;SDS011;52971;44.024;20.456;2022-08-19T01:52:49;5.82;;;4.28;;
66169;SDS011;52971;44.024;20.456;2022-08-19T01:55:15;5.22;;;4.82;;
66169;SDS011;52971;44.024;20.456;2022-08-19T01:57:44;6.03;;;4.50;;
66169;SDS011;52971;44.024;20.456;2022-08-19T02:00:13;6.53;;;4.72;;
66169;SDS011;52971;44.024;20.456;2022-08-19T02:02:41;5.43;;;4.93;;
66169;SDS011;52971;44.024;20.456;2022-08-19T02:05:07;7.88;;;5.38;;
66169;SDS011;52971;44.024;20.456;2022-08-19T02:07:33;6.28;;;5.35;;
66169;SDS011;52971;44.024;20.456;2022-08-19T02:10:01;8.70;;;5.63;;
66169;SDS011;52971;44.024;20.456;2022-08-19T02:12:32;6.78;;;4.63;;
66169;SDS011;52971;44.024;20.456;2022-08-19T02:14:58;5.65;;;4.65;;
66169;SDS011;52971;44.024;20.456;2022-08-19T02:17:24;5.78;;;5.10;;
66169;SDS011;52971;44.024;20.456;2022-08-19T02:19:50;7.13;;;4.70;;
66169;SDS011;52971;44.024;20.456;2022-08-19T02:22:15;4.93;;;4.43;;
66169;SDS011;52971;44.024;20.456;2022-08-19T02:24:41;5.85;;;4.45;;
66169;SDS011;52971;44.024;20.456;2022-08-19T02:27:06;6.82;;;4.60;;
66169;SDS011;52971;44.024;20.456;2022-08-19T02:29:32;6.13;;;4.20;;
66169;SDS011;52971;44.024;20.456;2022-08-19T02:31:57;6.35;;;4.43;;
66169;SDS011;52971;44.024;20.456;2022-08-19T02:34:23;12.05;;;5.10;;
66169;SDS011;52971;44.024;20.456;2022-08-19T02:36:50;5.60;;;5.10;;
66169;SDS011;52971;44.024;20.456;2022-08-19T02:39:16;8.95;;;5.30;;
66169;SDS011;52971;44.024;20.456;2022-08-19T02:41:42;6.57;;;5.40;;
66169;SDS011;52971;44.024;20.456;2022-08-19T02:44:08;5.82;;;4.85;;
66169;SDS011;52971;44.024;20.456;2022-08-19T02:46:34;6.78;;;5.20;;
66169;SDS011;52971;44.024;20.456;2022-08-19T02:49:02;7.80;;;5.40;;
66169;SDS011;52971;44.024;20.456;2022-08-19T02:51:31;5.80;;;4.82;;
66169;SDS011;52971;44.024;20.456;2022-08-19T02:54:04;5.88;;;4.47;;
66169;SDS011;52971;44.024;20.456;2022-08-19T02:56:30;6.13;;;4.80;;
66169;SDS011;52971;44.024;20.456;2022-08-19T02:58:56;5.15;;;4.65;;
66169;SDS011;52971;44.024;20.456;2022-08-19T03:01:24;11.05;;;5.35;;
66169;SDS011;52971;44.024;20.456;2022-08-19T03:03:52;5.40;;;4.90;;
66169;SDS011;52971;44.024;20.456;2022-08-19T03:06:17;8.30;;;4.93;;
66169;SDS011;52971;44.024;20.456;2022-08-19T03:08:44;5.25;;;4.63;;
66169;SDS011;52971;44.024;20.456;2022-08-19T03:11:18;7.28;;;4.82;;
66169;SDS011;52971;44.024;20.456;2022-08-19T03:13:51;7.75;;;5.80;;
66169;SDS011;52971;44.024;20.456;2022-08-19T03:16:19;5.65;;;5.13;;
66169;SDS011;52971;44.024;20.456;2022-08-19T03:18:46;7.18;;;5.28;;
66169;SDS011;52971;44.024;20.456;2022-08-19T03:21:16;8.07;;;5.20;;
66169;SDS011;52971;44.024;20.456;2022-08-19T03:23:43;5.03;;;4.57;;
66169;SDS011;52971;44.024;20.456;2022-08-19T03:26:09;6.63;;;5.10;;
66169;SDS011;52971;44.024;20.456;2022-08-19T03:28:34;5.32;;;4.82;;
66169;SDS011;52971;44.024;20.456;2022-08-19T03:31:05;5.22;;;4.68;;
66169;SDS011;52971;44.024;20.456;2022-08-19T03:33:38;8.73;;;5.38;;
66169;SDS011;52971;44.024;20.456;2022-08-19T03:38:33;5.95;;;5.07;;
66169;SDS011;52971;44.024;20.456;2022-08-19T03:41:05;7.22;;;5.60;;
66169;SDS011;52971;44.024;20.456;2022-08-19T03:43:34;7.18;;;5.65;;
66169;SDS011;52971;44.024;20.456;2022-08-19T03:46:06;5.55;;;5.00;;
66169;SDS011;52971;44.024;20.456;2022-08-19T03:48:34;7.68;;;5.88;;
66169;SDS011;52971;44.024;20.456;2022-08-19T03:51:00;7.63;;;5.82;;
66169;SDS011;52971;44.024;20.456;2022-08-19T03:53:27;7.63;;;6.80;;
66169;SDS011;52971;44.024;20.456;2022-08-19T03:55:54;10.68;;;6.47;;
66169;SDS011;52971;44.024;20.456;2022-08-19T03:58:21;8.13;;;6.03;;
66169;SDS011;52971;44.024;20.456;2022-08-19T04:00:47;7.00;;;6.30;;
66169;SDS011;52971;44.024;20.456;2022-08-19T04:03:12;8.20;;;5.78;;
66169;SDS011;52971;44.024;20.456;2022-08-19T04:05:39;8.52;;;5.40;;
66169;SDS011;52971;44.024;20.456;2022-08-19T04:08:05;5.75;;;5.18;;
66169;SDS011;52971;44.024;20.456;2022-08-19T04:10:31;5.65;;;5.15;;
66169;SDS011;52971;44.024;20.456;2022-08-19T04:13:01;7.32;;;5.38;;
66169;SDS011;52971;44.024;20.456;2022-08-19T04:15:26;6.82;;;5.55;;
66169;SDS011;52971;44.024;20.456;2022-08-19T04:17:53;7.60;;;5.60;;
66169;SDS011;52971;44.024;20.456;2022-08-19T04:20:19;6.63;;;5.97;;
66169;SDS011;52971;44.024;20.456;2022-08-19T04:22:45;12.20;;;6.05;;
66169;SDS011;52971;44.024;20.456;2022-08-19T04:25:10;6.82;;;6.00;;
66169;SDS011;52971;44.024;20.456;2022-08-19T04:27:36;8.65;;;7.10;;
66169;SDS011;52971;44.024;20.456;2022-08-19T04:30:02;8.80;;;6.72;;
66169;SDS011;52971;44.024;20.456;2022-08-19T04:32:28;10.50;;;7.00;;
66169;SDS011;52971;44.024;20.456;2022-08-19T04:34:53;15.32;;;8.10;;
66169;SDS011;52971;44.024;20.456;2022-08-19T04:37:24;7.93;;;7.07;;
66169;SDS011;52971;44.024;20.456;2022-08-19T04:39:51;10.30;;;7.15;;
66169;SDS011;52971;44.024;20.456;2022-08-19T04:42:35;10.77;;;7.50;;
66169;SDS011;52971;44.024;20.456;2022-08-19T04:45:07;10.90;;;7.50;;
66169;SDS011;52971;44.024;20.456;2022-08-19T04:47:37;12.68;;;7.80;;
66169;SDS011;52971;44.024;20.456;2022-08-19T04:50:04;11.75;;;8.13;;
66169;SDS011;52971;44.024;20.456;2022-08-19T04:52:31;11.63;;;7.57;;
66169;SDS011;52971;44.024;20.456;2022-08-19T04:54:57;16.75;;;8.55;;
66169;SDS011;52971;44.024;20.456;2022-08-19T04:57:23;12.65;;;8.10;;
66169;SDS011;52971;44.024;20.456;2022-08-19T04:59:53;11.23;;;8.00;;
66169;SDS011;52971;44.024;20.456;2022-08-19T05:02:18;10.60;;;7.30;;
66169;SDS011;52971;44.024;20.456;2022-08-19T05:04:44;11.60;;;8.35;;
66169;SDS011;52971;44.024;20.456;2022-08-19T05:07:09;10.23;;;7.78;;
66169;SDS011;52971;44.024;20.456;2022-08-19T05:09:35;12.07;;;7.70;;
66169;SDS011;52971;44.024;20.456;2022-08-19T05:12:01;11.35;;;7.20;;
66169;SDS011;52971;44.024;20.456;2022-08-19T05:14:26;11.38;;;7.88;;
66169;SDS011;52971;44.024;20.456;2022-08-19T05:16:52;11.20;;;7.60;;
66169;SDS011;52971;44.024;20.456;2022-08-19T05:19:17;8.68;;;7.60;;
66169;SDS011;52971;44.024;20.456;2022-08-19T05:22:01;10.38;;;7.68;;
66169;SDS011;52971;44.024;20.456;2022-08-19T05:24:45;12.48;;;7.78;;
66169;SDS011;52971;44.024;20.456;2022-08-19T05:27:11;10.73;;;7.88;;
66169;SDS011;52971;44.024;20.456;2022-08-19T05:29:36;10.13;;;7.55;;
66169;SDS011;52971;44.024;20.456;2022-08-19T05:32:03;17.10;;;8.00;;
66169;SDS011;52971;44.024;20.456;2022-08-19T05:34:30;17.45;;;9.05;;
66169;SDS011;52971;44.024;20.456;2022-08-19T05:36:58;13.32;;;10.07;;
66169;SDS011;52971;44.024;20.456;2022-08-19T05:39:25;11.52;;;9.57;;
66169;SDS011;52971;44.024;20.456;2022-08-19T05:41:54;17.73;;;10.30;;
66169;SDS011;52971;44.024;20.456;2022-08-19T05:44:22;20.27;;;9.85;;
66169;SDS011;52971;44.024;20.456;2022-08-19T05:46:56;16.17;;;9.05;;
66169;SDS011;52971;44.024;20.456;2022-08-19T05:49:22;12.35;;;8.60;;
66169;SDS011;52971;44.024;20.456;2022-08-19T05:51:50;9.90;;;7.57;;
66169;SDS011;52971;44.024;20.456;2022-08-19T05:54:17;8.13;;;7.32;;
66169;SDS011;52971;44.024;20.456;2022-08-19T05:56:43;10.43;;;6.93;;
66169;SDS011;52971;44.024;20.456;2022-08-19T05:59:09;10.48;;;6.80;;
66169;SDS011;52971;44.024;20.456;2022-08-19T06:01:40;8.43;;;5.80;;
66169;SDS011;52971;44.024;20.456;2022-08-19T06:04:08;10.23;;;6.15;;
66169;SDS011;52971;44.024;20.456;2022-08-19T06:06:34;11.75;;;5.75;;
66169;SDS011;52971;44.024;20.456;2022-08-19T06:09:01;11.00;;;6.20;;
66169;SDS011;52971;44.024;20.456;2022-08-19T06:14:00;10.02;;;5.35;;
66169;SDS011;52971;44.024;20.456;2022-08-19T06:16:34;9.95;;;5.88;;
66169;SDS011;52971;44.024;20.456;2022-08-19T06:19:00;8.05;;;5.03;;
66169;SDS011;52971;44.024;20.456;2022-08-19T06:21:29;7.28;;;5.00;;
66169;SDS011;52971;44.024;20.456;2022-08-19T06:23:55;9.55;;;5.30;;
66169;SDS011;52971;44.024;20.456;2022-08-19T06:26:22;6.10;;;4.32;;
66169;SDS011;52971;44.024;20.456;2022-08-19T06:28:49;10.38;;;5.22;;
66169;SDS011;52971;44.024;20.456;2022-08-19T06:31:16;6.50;;;5.18;;
66169;SDS011;52971;44.024;20.456;2022-08-19T06:33:45;6.97;;;4.93;;
66169;SDS011;52971;44.024;20.456;2022-08-19T06:36:21;8.35;;;4.93;;
66169;SDS011;52971;44.024;20.456;2022-08-19T06:39:07;10.13;;;5.32;;
66169;SDS011;52971;44.024;20.456;2022-08-19T06:41:38;9.02;;;5.25;;
66169;SDS011;52971;44.024;20.456;2022-08-19T06:44:06;7.30;;;5.45;;
66169;SDS011;52971;44.024;20.456;2022-08-19T06:46:32;10.70;;;5.25;;
66169;SDS011;52971;44.024;20.456;2022-08-19T06:48:58;10.63;;;5.25;;
66169;SDS011;52971;44.024;20.456;2022-08-19T06:51:24;8.45;;;5.30;;
66169;SDS011;52971;44.024;20.456;2022-08-19T06:53:51;8.55;;;4.93;;
66169;SDS011;52971;44.024;20.456;2022-08-19T06:56:19;17.10;;;5.82;;
66169;SDS011;52971;44.024;20.456;2022-08-19T06:58:46;9.65;;;4.82;;
66169;SDS011;52971;44.024;20.456;2022-08-19T07:01:13;6.18;;;4.68;;
66169;SDS011;52971;44.024;20.456;2022-08-19T07:03:38;6.75;;;3.58;;
66169;SDS011;52971;44.024;20.456;2022-08-19T07:06:05;8.20;;;4.43;;
66169;SDS011;52971;44.024;20.456;2022-08-19T07:08:33;8.60;;;4.63;;
66169;SDS011;52971;44.024;20.456;2022-08-19T07:11:01;7.25;;;3.05;;
66169;SDS011;52971;44.024;20.456;2022-08-19T07:13:26;10.27;;;3.28;;
66169;SDS011;52971;44.024;20.456;2022-08-19T07:15:51;10.02;;;3.13;;
66169;SDS011;52971;44.024;20.456;2022-08-19T07:18:18;8.65;;;3.53;;
66169;SDS011;52971;44.024;20.456;2022-08-19T07:20:45;7.18;;;3.10;;
66169;SDS011;52971;44.024;20.456;2022-08-19T07:23:11;7.40;;;3.35;;
66169;SDS011;52971;44.024;20.456;2022-08-19T07:25:37;4.35;;;2.65;;
66169;SDS011;52971;44.024;20.456;2022-08-19T07:28:03;7.80;;;3.33;;
66169;SDS011;52971;44.024;20.456;2022-08-19T07:30:31;4.55;;;2.65;;
66169;SDS011;52971;44.024;20.456;2022-08-19T07:32:57;6.47;;;2.50;;
66169;SDS011;52971;44.024;20.456;2022-08-19T07:35:22;6.43;;;2.47;;
66169;SDS011;52971;44.024;20.456;2022-08-19T07:37:48;4.22;;;2.60;;
66169;SDS011;52971;44.024;20.456;2022-08-19T07:40:14;8.90;;;2.78;;
66169;SDS011;52971;44.024;20.456;2022-08-19T07:42:39;6.97;;;3.00;;
66169;SDS011;52971;44.024;20.456;2022-08-19T07:45:06;4.93;;;2.35;;
66169;SDS011;52971;44.024;20.456;2022-08-19T07:47:33;7.78;;;2.95;;
66169;SDS011;52971;44.024;20.456;2022-08-19T07:49:58;7.57;;;3.00;;
66169;SDS011;52971;44.024;20.456;2022-08-19T07:52:24;5.68;;;2.53;;
66169;SDS011;52971;44.024;20.456;2022-08-19T07:54:49;4.85;;;2.88;;
66169;SDS011;52971;44.024;20.456;2022-08-19T07:57:15;8.23;;;2.88;;
66169;SDS011;52971;44.024;20.456;2022-08-19T07:59:42;10.30;;;3.78;;
66169;SDS011;52971;44.024;20.456;2022-08-19T08:02:08;6.32;;;3.45;;
66169;SDS011;52971;44.024;20.456;2022-08-19T08:04:34;6.90;;;3.20;;
66169;SDS011;52971;44.024;20.456;2022-08-19T08:07:18;7.25;;;2.65;;
66169;SDS011;52971;44.024;20.456;2022-08-19T08:10:03;7.00;;;3.25;;
66169;SDS011;52971;44.024;20.456;2022-08-19T08:12:32;4.60;;;2.78;;
66169;SDS011;52971;44.024;20.456;2022-08-19T08:15:05;7.93;;;3.40;;
66169;SDS011;52971;44.024;20.456;2022-08-19T08:17:32;7.32;;;2.97;;
66169;SDS011;52971;44.024;20.456;2022-08-19T08:19:58;5.03;;;2.47;;
66169;SDS011;52971;44.024;20.456;2022-08-19T08:22:24;3.47;;;2.90;;
66169;SDS011;52971;44.024;20.456;2022-08-19T08:27:40;6.38;;;2.55;;
66169;SDS011;52971;44.024;20.456;2022-08-19T08:30:08;5.90;;;2.88;;
66169;SDS011;52971;44.024;20.456;2022-08-19T08:32:40;7.53;;;3.37;;
66169;SDS011;52971;44.024;20.456;2022-08-19T08:35:07;8.52;;;3.03;;
66169;SDS011;52971;44.024;20.456;2022-08-19T08:37:36;4.95;;;2.55;;
66169;SDS011;52971;44.024;20.456;2022-08-19T08:40:45;6.03;;;2.50;;
66169;SDS011;52971;44.024;20.456;2022-08-19T08:43:19;7.50;;;2.92;;
66169;SDS011;52971;44.024;20.456;2022-08-19T08:51:02;18.05;;;3.22;;
66169;SDS011;52971;44.024;20.456;2022-08-19T08:53:31;10.70;;;3.00;;
66169;SDS011;52971;44.024;20.456;2022-08-19T08:55:59;5.28;;;2.47;;
66169;SDS011;52971;44.024;20.456;2022-08-19T09:01:44;4.32;;;2.15;;
66169;SDS011;52971;44.024;20.456;2022-08-19T09:04:09;7.55;;;2.65;;
66169;SDS011;52971;44.024;20.456;2022-08-19T09:06:42;8.60;;;2.70;;
66169;SDS011;52971;44.024;20.456;2022-08-19T09:09:18;6.30;;;2.05;;
66169;SDS011;52971;44.024;20.456;2022-08-19T09:14:46;4.68;;;2.15;;
66169;SDS011;52971;44.024;20.456;2022-08-19T09:17:13;6.45;;;2.33;;
66169;SDS011;52971;44.024;20.456;2022-08-19T09:20:39;8.63;;;2.75;;
66169;SDS011;52971;44.024;20.456;2022-08-19T09:22:35;6.43;;;2.08;;
66169;SDS011;52971;44.024;20.456;2022-08-19T09:25:06;6.15;;;2.20;;
66169;SDS011;52971;44.024;20.456;2022-08-19T09:27:33;7.05;;;2.45;;
66169;SDS011;52971;44.024;20.456;2022-08-19T09:30:03;6.57;;;2.28;;
66169;SDS011;52971;44.024;20.456;2022-08-19T09:32:30;5.88;;;1.88;;
66169;SDS011;52971;44.024;20.456;2022-08-19T09:34:55;4.10;;;2.25;;
66169;SDS011;52971;44.024;20.456;2022-08-19T09:37:23;6.35;;;2.38;;
66169;SDS011;52971;44.024;20.456;2022-08-19T09:39:49;10.13;;;2.60;;
66169;SDS011;52971;44.024;20.456;2022-08-19T09:42:15;6.32;;;2.50;;
66169;SDS011;52971;44.024;20.456;2022-08-19T09:44:41;2.78;;;1.83;;
66169;SDS011;52971;44.024;20.456;2022-08-19T09:47:07;7.70;;;2.00;;
66169;SDS011;52971;44.024;20.456;2022-08-19T09:49:34;4.65;;;2.03;;
66169;SDS011;52971;44.024;20.456;2022-08-19T09:52:00;4.57;;;1.75;;
66169;SDS011;52971;44.024;20.456;2022-08-19T09:54:26;5.43;;;2.20;;
66169;SDS011;52971;44.024;20.456;2022-08-19T09:56:53;2.78;;;1.60;;
66169;SDS011;52971;44.024;20.456;2022-08-19T09:59:18;10.82;;;2.22;;
66169;SDS011;52971;44.024;20.456;2022-08-19T10:01:44;7.85;;;1.65;;
66169;SDS011;52971;44.024;20.456;2022-08-19T10:04:09;6.72;;;2.10;;
66169;SDS011;52971;44.024;20.456;2022-08-19T10:06:36;5.72;;;2.17;;
66169;SDS011;52971;44.024;20.456;2022-08-19T10:09:04;3.92;;;1.77;;
66169;SDS011;52971;44.024;20.456;2022-08-19T10:11:32;5.43;;;1.75;;
66169;SDS011;52971;44.024;20.456;2022-08-19T10:13:59;5.97;;;1.67;;
66169;SDS011;52971;44.024;20.456;2022-08-19T10:16:25;5.85;;;1.80;;
66169;SDS011;52971;44.024;20.456;2022-08-19T10:18:51;2.65;;;1.55;;
66169;SDS011;52971;44.024;20.456;2022-08-19T10:21:24;6.25;;;1.77;;
66169;SDS011;52971;44.024;20.456;2022-08-19T10:23:52;2.85;;;2.13;;
66169;SDS011;52971;44.024;20.456;2022-08-19T10:26:25;7.50;;;1.58;;
66169;SDS011;52971;44.024;20.456;2022-08-19T10:28:52;4.30;;;1.90;;
66169;SDS011;52971;44.024;20.456;2022-08-19T10:31:20;6.68;;;1.77;;
66169;SDS011;52971;44.024;20.456;2022-08-19T10:33:49;5.25;;;1.67;;
66169;SDS011;52971;44.024;20.456;2022-08-19T10:36:19;7.22;;;1.70;;
66169;SDS011;52971;44.024;20.456;2022-08-19T10:38:49;1.52;;;1.05;;
66169;SDS011;52971;44.024;20.456;2022-08-19T10:41:23;4.13;;;2.20;;
66169;SDS011;52971;44.024;20.456;2022-08-19T10:43:50;4.18;;;1.77;;
66169;SDS011;52971;44.024;20.456;2022-08-19T10:46:22;4.20;;;1.75;;
66169;SDS011;52971;44.024;20.456;2022-08-19T10:48:49;7.55;;;2.47;;
66169;SDS011;52971;44.024;20.456;2022-08-19T10:51:15;16.08;;;2.30;;
66169;SDS011;52971;44.024;20.456;2022-08-19T10:54:00;4.40;;;2.65;;
66169;SDS011;52971;44.024;20.456;2022-08-19T10:56:26;4.03;;;1.55;;
66169;SDS011;52971;44.024;20.456;2022-08-19T10:59:12;5.88;;;1.88;;
66169;SDS011;52971;44.024;20.456;2022-08-19T11:01:39;5.28;;;1.80;;
66169;SDS011;52971;44.024;20.456;2022-08-19T11:04:05;3.97;;;2.22;;
66169;SDS011;52971;44.024;20.456;2022-08-19T11:06:35;4.82;;;2.00;;
66169;SDS011;52971;44.024;20.456;2022-08-19T11:09:01;5.50;;;2.13;;
66169;SDS011;52971;44.024;20.456;2022-08-19T11:11:27;3.25;;;1.63;;
66169;SDS011;52971;44.024;20.456;2022-08-19T11:13:53;7.93;;;2.50;;
66169;SDS011;52971;44.024;20.456;2022-08-19T11:16:19;8.00;;;2.53;;
66169;SDS011;52971;44.024;20.456;2022-08-19T11:18:52;5.33;;;2.23;;
66169;SDS011;52971;44.024;20.456;2022-08-19T11:21:21;6.35;;;1.98;;
66169;SDS011;52971;44.024;20.456;2022-08-19T11:23:50;3.25;;;1.85;;
66169;SDS011;52971;44.024;20.456;2022-08-19T11:26:18;10.20;;;2.95;;
66169;SDS011;52971;44.024;20.456;2022-08-19T11:28:45;8.02;;;1.90;;
66169;SDS011;52971;44.024;20.456;2022-08-19T11:31:14;8.73;;;1.63;;
66169;SDS011;52971;44.024;20.456;2022-08-19T11:33:42;5.68;;;1.75;;
66169;SDS011;52971;44.024;20.456;2022-08-19T11:36:07;3.97;;;2.08;;
66169;SDS011;52971;44.024;20.456;2022-08-19T11:38:33;6.30;;;3.03;;
66169;SDS011;52971;44.024;20.456;2022-08-19T11:41:01;9.85;;;2.70;;
66169;SDS011;52971;44.024;20.456;2022-08-19T11:43:30;6.45;;;1.67;;
66169;SDS011;52971;44.024;20.456;2022-08-19T11:45:56;6.50;;;2.17;;
66169;SDS011;52971;44.024;20.456;2022-08-19T11:48:23;5.32;;;1.75;;
66169;SDS011;52971;44.024;20.456;2022-08-19T11:50:50;7.18;;;2.50;;
66169;SDS011;52971;44.024;20.456;2022-08-19T11:53:17;7.25;;;2.40;;
66169;SDS011;52971;44.024;20.456;2022-08-19T11:55:44;7.90;;;2.20;;
66169;SDS011;52971;44.024;20.456;2022-08-19T11:58:11;10.77;;;2.40;;
66169;SDS011;52971;44.024;20.456;2022-08-19T12:00:38;5.60;;;1.80;;
66169;SDS011;52971;44.024;20.456;2022-08-19T12:03:04;10.38;;;2.40;;
66169;SDS011;52971;44.024;20.456;2022-08-19T12:05:29;5.93;;;2.70;;
66169;SDS011;52971;44.024;20.456;2022-08-19T12:07:54;11.35;;;2.28;;
66169;SDS011;52971;44.024;20.456;2022-08-19T12:10:21;9.32;;;2.42;;
66169;SDS011;52971;44.024;20.456;2022-08-19T12:12:47;7.20;;;1.88;;
66169;SDS011;52971;44.024;20.456;2022-08-19T12:15:13;7.20;;;2.40;;
66169;SDS011;52971;44.024;20.456;2022-08-19T12:17:39;8.75;;;1.45;;
66169;SDS011;52971;44.024;20.456;2022-08-19T12:20:07;9.10;;;2.50;;
66169;SDS011;52971;44.024;20.456;2022-08-19T12:22:35;7.57;;;2.15;;
66169;SDS011;52971;44.024;20.456;2022-08-19T12:25:01;6.88;;;2.08;;
66169;SDS011;52971;44.024;20.456;2022-08-19T12:27:27;5.85;;;2.35;;
66169;SDS011;52971;44.024;20.456;2022-08-19T12:29:53;8.50;;;2.40;;
66169;SDS011;52971;44.024;20.456;2022-08-19T12:32:18;4.97;;;1.80;;
66169;SDS011;52971;44.024;20.456;2022-08-19T12:34:44;7.57;;;2.05;;
66169;SDS011;52971;44.024;20.456;2022-08-19T12:37:12;8.35;;;2.20;;
66169;SDS011;52971;44.024;20.456;2022-08-19T12:39:39;5.85;;;2.05;;
66169;SDS011;52971;44.024;20.456;2022-08-19T12:42:07;19.88;;;2.17;;
66169;SDS011;52971;44.024;20.456;2022-08-19T12:44:34;10.98;;;2.00;;
66169;SDS011;52971;44.024;20.456;2022-08-19T12:47:01;6.90;;;2.08;;
66169;SDS011;52971;44.024;20.456;2022-08-19T12:49:28;10.07;;;2.40;;
66169;SDS011;52971;44.024;20.456;2022-08-19T12:51:54;10.27;;;2.13;;
66169;SDS011;52971;44.024;20.456;2022-08-19T12:54:20;10.10;;;2.92;;
66169;SDS011;52971;44.024;20.456;2022-08-19T12:56:46;8.85;;;1.95;;
66169;SDS011;52971;44.024;20.456;2022-08-19T12:59:11;5.88;;;1.60;;
66169;SDS011;52971;44.024;20.456;2022-08-19T13:01:37;10.50;;;2.25;;
66169;SDS011;52971;44.024;20.456;2022-08-19T13:04:03;9.90;;;2.22;;
66169;SDS011;52971;44.024;20.456;2022-08-19T13:06:29;7.32;;;2.08;;
66169;SDS011;52971;44.024;20.456;2022-08-19T13:08:55;5.50;;;1.90;;
66169;SDS011;52971;44.024;20.456;2022-08-19T13:11:21;7.07;;;2.25;;
66169;SDS011;52971;44.024;20.456;2022-08-19T13:13:49;7.13;;;2.35;;
66169;SDS011;52971;44.024;20.456;2022-08-19T13:16:17;8.98;;;1.83;;
66169;SDS011;52971;44.024;20.456;2022-08-19T13:18:44;10.55;;;2.42;;
66169;SDS011;52971;44.024;20.456;2022-08-19T13:21:12;12.75;;;1.95;;
66169;SDS011;52971;44.024;20.456;2022-08-19T13:23:38;9.02;;;2.15;;
66169;SDS011;52971;44.024;20.456;2022-08-19T13:26:05;10.32;;;2.40;;
66169;SDS011;52971;44.024;20.456;2022-08-19T13:28:33;11.48;;;2.45;;
66169;SDS011;52971;44.024;20.456;2022-08-19T13:31:19;12.13;;;2.15;;
66169;SDS011;52971;44.024;20.456;2022-08-19T13:34:05;15.35;;;2.67;;
66169;SDS011;52971;44.024;20.456;2022-08-19T13:36:34;11.88;;;2.25;;
66169;SDS011;52971;44.024;20.456;2022-08-19T13:39:01;17.73;;;3.00;;
66169;SDS011;52971;44.024;20.456;2022-08-19T13:41:27;7.72;;;1.52;;
66169;SDS011;52971;44.024;20.456;2022-08-19T13:43:53;7.13;;;1.95;;
66169;SDS011;52971;44.024;20.456;2022-08-19T13:46:19;12.38;;;2.72;;
66169;SDS011;52971;44.024;20.456;2022-08-19T13:48:45;8.75;;;2.47;;
66169;SDS011;52971;44.024;20.456;2022-08-19T13:51:11;8.52;;;1.85;;
66169;SDS011;52971;44.024;20.456;2022-08-19T13:53:37;5.75;;;2.15;;
66169;SDS011;52971;44.024;20.456;2022-08-19T13:56:10;12.27;;;2.58;;
66169;SDS011;52971;44.024;20.456;2022-08-19T13:58:38;11.27;;;2.58;;
66169;SDS011;52971;44.024;20.456;2022-08-19T14:01:04;9.95;;;2.08;;
66169;SDS011;52971;44.024;20.456;2022-08-19T14:03:30;12.85;;;2.88;;
66169;SDS011;52971;44.024;20.456;2022-08-19T14:05:57;11.82;;;2.83;;
66169;SDS011;52971;44.024;20.456;2022-08-19T14:08:23;14.63;;;2.20;;
66169;SDS011;52971;44.024;20.456;2022-08-19T14:10:49;10.75;;;2.15;;
66169;SDS011;52971;44.024;20.456;2022-08-19T14:13:15;8.48;;;2.13;;
66169;SDS011;52971;44.024;20.456;2022-08-19T14:15:44;10.68;;;1.88;;
66169;SDS011;52971;44.024;20.456;2022-08-19T14:18:10;12.63;;;2.70;;
66169;SDS011;52971;44.024;20.456;2022-08-19T14:20:36;11.40;;;3.05;;
66169;SDS011;52971;44.024;20.456;2022-08-19T14:23:02;12.18;;;3.00;;
66169;SDS011;52971;44.024;20.456;2022-08-19T14:25:29;10.98;;;2.30;;
66169;SDS011;52971;44.024;20.456;2022-08-19T14:27:55;8.18;;;2.10;;
66169;SDS011;52971;44.024;20.456;2022-08-19T14:30:26;14.43;;;3.92;;
66169;SDS011;52971;44.024;20.456;2022-08-19T14:32:53;13.07;;;3.08;;
66169;SDS011;52971;44.024;20.456;2022-08-19T14:35:23;15.38;;;2.17;;
66169;SDS011;52971;44.024;20.456;2022-08-19T14:37:50;13.98;;;2.55;;
66169;SDS011;52971;44.024;20.456;2022-08-19T14:40:21;8.50;;;2.33;;
66169;SDS011;52971;44.024;20.456;2022-08-19T14:43:02;12.15;;;2.30;;
66169;SDS011;52971;44.024;20.456;2022-08-19T14:45:30;14.93;;;3.38;;
66169;SDS011;52971;44.024;20.456;2022-08-19T14:47:57;22.73;;;3.80;;
66169;SDS011;52971;44.024;20.456;2022-08-19T14:50:25;15.73;;;3.35;;
66169;SDS011;52971;44.024;20.456;2022-08-19T14:52:56;16.27;;;4.00;;
66169;SDS011;52971;44.024;20.456;2022-08-19T14:55:33;18.95;;;4.82;;